Terminal Aerodrome Forecast
Issued by NWS Jacksonville, FL

Home | Current Version | Previous Version | Text Only | Print | Product List | Glossary On
Versions: 1 2 3 4 5 6 7 8 9 10 11 12 13 14
000
FTUS42 KJAX 011100
TAFGNV
TAF
KGNV 011120Z 0112/0212 VRB03KT P6SM FEW030 SCT250
      TEMPO 0112/0113 2SM BR BKN005
     FM011400 23004KT P6SM FEW030 SCT250
     FM012000 22005KT P6SM VCTS SCT050CB BKN250
     FM020100 12003KT P6SM SCT050 SCT250=

USA.gov is the U.S. government's official web portal to all federal, state and local government web resources and services.